Time;durP1;ratioP1;P1;durP2;ratioP2;P2;SDS_P1;SDS_P2;PMS_P1;PMS_P2;Temp;Humidity;BMP_temperature;BMP_pressure;BME280_temperature;BME280_humidity;BME280_pressure;Samples;Min_cycle;Max_cycle;Signal;HPM_P1;HPM_P2
2022/06/03 00:01:42;;;;;;;;;;;20.40;43.90;;;;;;4935926;28;19929;-58
2022/06/03 00:04:16;;;;;;;;;;;20.40;43.80;;;;;;4936625;28;20310;-58
2022/06/03 00:06:50;;;;;;;;;;;20.40;43.80;;;;;;4929531;28;19923;-54
2022/06/03 00:09:36;;;;;;;;;;;20.40;43.80;;;;;;4956007;28;19992;-59
2022/06/03 00:12:10;;;;;;;;;;;20.40;43.80;;;;;;4941894;28;19997;-57
2022/06/03 00:14:42;;;;;;;;;;;20.40;43.80;;;;;;4938852;28;19929;-56
2022/06/03 00:17:11;;;;;;;;;;;20.40;43.80;;;;;;4961121;28;19927;-56
2022/06/03 00:19:44;;;;;;;;;;;20.40;43.80;;;;;;5001630;28;20314;-55
2022/06/03 00:22:29;;;;;;;;;;;20.40;43.70;;;;;;4927275;29;20380;-56
2022/06/03 00:25:02;;;;;;;;;;;20.40;43.70;;;;;;4950486;28;20375;-56
2022/06/03 00:27:51;;;;;;;;;;;20.40;43.70;;;;;;4933985;28;19941;-59
2022/06/03 00:30:34;;;;;;;;;;;20.40;43.70;;;;;;4929146;28;20002;-59
2022/06/03 00:33:16;;;;;;;;;;;20.40;43.70;;;;;;4924360;29;20265;-60
2022/06/03 00:35:44;;;;;;;;;;;20.40;43.70;;;;;;4944033;28;20017;-57
2022/06/03 00:38:14;;;;;;;;;;;20.40;43.60;;;;;;4940778;28;20009;-58
2022/06/03 00:40:43;;;;;;;;;;;20.40;43.60;;;;;;4931991;28;20006;-56
2022/06/03 00:43:31;;;;;;;;;;;20.40;43.60;;;;;;4961053;28;20360;-55
2022/06/03 00:46:09;;;;;;;;;;;20.40;43.60;;;;;;4967071;28;19924;-55
2022/06/03 00:48:42;;;;;;;;;;;20.40;43.60;;;;;;4939521;28;19923;-53
2022/06/03 00:51:23;;;;;;;;;;;20.40;43.60;;;;;;4928865;29;19930;-54
2022/06/03 00:53:52;;;;;;;;;;;20.30;43.50;;;;;;4935737;28;20395;-59
2022/06/03 00:56:43;;;;;;;;;;;20.30;43.40;;;;;;4926306;29;19923;-56
2022/06/03 00:59:14;;;;;;;;;;;20.30;43.40;;;;;;4961007;28;19923;-57
2022/06/03 01:01:43;;;;;;;;;;;20.30;43.40;;;;;;4930803;28;19973;-57
2022/06/03 01:04:24;;;;;;;;;;;20.30;43.40;;;;;;4920690;28;19937;-54
2022/06/03 01:06:54;;;;;;;;;;;20.30;43.40;;;;;;4929074;28;20253;-56
2022/06/03 01:09:28;;;;;;;;;;;20.30;43.40;;;;;;4964366;28;19923;-57
2022/06/03 01:12:13;;;;;;;;;;;20.30;43.40;;;;;;4936980;28;19927;-54
2022/06/03 01:14:44;;;;;;;;;;;20.30;43.40;;;;;;4959845;28;19969;-57
2022/06/03 01:17:14;;;;;;;;;;;20.30;43.30;;;;;;4935251;28;20497;-60
2022/06/03 01:19:46;;;;;;;;;;;20.30;43.30;;;;;;4951301;28;20280;-53
2022/06/03 01:22:18;;;;;;;;;;;20.30;43.30;;;;;;4931069;28;19930;-56
2022/06/03 01:24:54;;;;;;;;;;;20.30;43.30;;;;;;4937506;28;19923;-57
2022/06/03 01:27:27;;;;;;;;;;;20.30;43.30;;;;;;4944311;28;19923;-56
2022/06/03 01:30:00;;;;;;;;;;;20.30;43.20;;;;;;4944814;28;19930;-56
2022/06/03 01:32:31;;;;;;;;;;;20.30;43.30;;;;;;4935478;28;19931;-57
2022/06/03 01:35:04;;;;;;;;;;;20.30;43.30;;;;;;4930289;28;20397;-55
2022/06/03 01:37:31;;;;;;;;;;;20.30;43.30;;;;;;4948790;28;19965;-53
2022/06/03 01:40:18;;;;;;;;;;;20.30;43.20;;;;;;4959332;28;19921;-57
2022/06/03 01:43:03;;;;;;;;;;;20.30;43.20;;;;;;4942060;28;19954;-58
2022/06/03 01:45:39;;;;;;;;;;;20.30;43.20;;;;;;4932507;28;19977;-53
2022/06/03 01:48:12;;;;;;;;;;;20.30;43.20;;;;;;4944410;28;19927;-57
2022/06/03 01:50:49;;;;;;;;;;;20.30;43.20;;;;;;4935214;28;19976;-57
2022/06/03 01:53:23;;;;;;;;;;;20.20;43.10;;;;;;5012922;28;19926;-54
2022/06/03 01:55:58;;;;;;;;;;;20.30;43.20;;;;;;4935061;28;19981;-55
2022/06/03 01:58:29;;;;;;;;;;;20.20;43.00;;;;;;4935280;28;19934;-55
2022/06/03 02:00:59;;;;;;;;;;;20.20;43.10;;;;;;4928156;28;19990;-54
2022/06/03 02:03:42;;;;;;;;;;;20.20;43.00;;;;;;4951844;28;19935;-58
2022/06/03 02:06:26;;;;;;;;;;;20.20;43.00;;;;;;4922321;28;20284;-54
2022/06/03 02:09:12;;;;;;;;;;;20.20;43.00;;;;;;4950070;28;19923;-55
2022/06/03 02:11:52;;;;;;;;;;;20.20;43.00;;;;;;4949841;28;19935;-52
2022/06/03 02:14:25;;;;;;;;;;;20.20;43.00;;;;;;4937925;28;19977;-53
2022/06/03 02:17:07;;;;;;;;;;;20.20;43.00;;;;;;4927548;28;19938;-58
2022/06/03 02:19:40;;;;;;;;;;;20.20;43.00;;;;;;4929143;28;20337;-56
2022/06/03 02:22:21;;;;;;;;;;;20.20;43.00;;;;;;4921868;28;19939;-55
2022/06/03 02:24:50;;;;;;;;;;;20.20;43.00;;;;;;4924543;28;19934;-56
2022/06/03 02:27:32;;;;;;;;;;;20.20;43.00;;;;;;4946560;28;19927;-58
2022/06/03 02:30:29;;;;;;;;;;;20.20;42.90;;;;;;4938936;28;20304;-57
2022/06/03 02:33:29;;;;;;;;;;;20.20;42.90;;;;;;4924571;28;19930;-57
2022/06/03 02:36:13;;;;;;;;;;;20.20;42.90;;;;;;4933250;28;19982;-54
2022/06/03 02:38:46;;;;;;;;;;;20.20;42.90;;;;;;4933835;28;19930;-54
2022/06/03 02:41:17;;;;;;;;;;;20.20;42.90;;;;;;4940803;28;20044;-56
2022/06/03 02:44:00;;;;;;;;;;;20.20;42.90;;;;;;4935627;28;20040;-52
2022/06/03 02:46:49;;;;;;;;;;;20.20;42.90;;;;;;4934271;28;20057;-56
2022/06/03 02:49:31;;;;;;;;;;;20.20;42.90;;;;;;4919361;28;19923;-52
2022/06/03 02:52:12;;;;;;;;;;;20.20;42.90;;;;;;4937669;29;20247;-52
2022/06/03 02:54:48;;;;;;;;;;;20.20;42.90;;;;;;4946670;28;19981;-55
2022/06/03 02:57:22;;;;;;;;;;;20.20;42.90;;;;;;4933841;28;19938;-55
2022/06/03 03:00:04;;;;;;;;;;;20.20;42.90;;;;;;4940431;28;20448;-55
2022/06/03 03:03:01;;;;;;;;;;;20.20;42.90;;;;;;4944200;28;19935;-55
2022/06/03 03:05:30;;;;;;;;;;;20.20;42.90;;;;;;4968960;28;20065;-54
2022/06/03 03:08:15;;;;;;;;;;;20.20;42.80;;;;;;4937887;28;19931;-53
2022/06/03 03:10:55;;;;;;;;;;;20.20;42.80;;;;;;4915904;28;19931;-57
2022/06/03 03:13:29;;;;;;;;;;;20.10;42.70;;;;;;4934771;28;19927;-55
2022/06/03 03:16:04;;;;;;;;;;;20.10;42.70;;;;;;4939755;28;19962;-56
2022/06/03 03:18:44;;;;;;;;;;;20.10;42.70;;;;;;4924880;28;19930;-54
2022/06/03 03:21:29;;;;;;;;;;;20.10;42.70;;;;;;4939546;28;20446;-56
2022/06/03 03:24:23;;;;;;;;;;;20.10;42.70;;;;;;4973039;28;19928;-57
2022/06/03 03:26:54;;;;;;;;;;;20.10;42.70;;;;;;4955795;28;20041;-60
2022/06/03 03:29:34;;;;;;;;;;;20.10;42.70;;;;;;4949011;28;20022;-57
2022/06/03 03:32:16;;;;;;;;;;;20.10;43.30;;;;;;4941849;28;19927;-59
2022/06/03 03:34:55;;;;;;;;;;;20.10;42.70;;;;;;4941837;28;19923;-57
2022/06/03 03:37:25;;;;;;;;;;;20.10;42.70;;;;;;4970226;28;19942;-56
2022/06/03 03:40:06;;;;;;;;;;;20.10;42.70;;;;;;4930850;28;20491;-59
2022/06/03 03:42:54;;;;;;;;;;;20.10;42.70;;;;;;4949037;28;19969;-59
2022/06/03 03:45:42;;;;;;;;;;;20.10;42.70;;;;;;4944618;28;19980;-57
2022/06/03 03:48:20;;;;;;;;;;;20.10;42.60;;;;;;4967755;28;19929;-61
2022/06/03 03:50:50;;;;;;;;;;;20.10;42.70;;;;;;4924437;28;20013;-59
2022/06/03 03:53:35;;;;;;;;;;;20.10;42.60;;;;;;4945290;28;19922;-55
2022/06/03 03:56:16;;;;;;;;;;;20.10;42.60;;;;;;4946354;28;20284;-56
2022/06/03 03:58:47;;;;;;;;;;;20.10;42.60;;;;;;4944058;28;19935;-56
2022/06/03 04:01:29;;;;;;;;;;;20.10;42.70;;;;;;4929606;28;20384;-59
2022/06/03 04:04:02;;;;;;;;;;;20.10;42.60;;;;;;4924345;28;19954;-57
2022/06/03 04:06:32;;;;;;;;;;;20.10;42.70;;;;;;4937158;28;19977;-57
2022/06/03 04:09:07;;;;;;;;;;;20.10;42.60;;;;;;4923194;28;20372;-54
2022/06/03 04:11:48;;;;;;;;;;;20.10;42.60;;;;;;4929498;28;20029;-55
2022/06/03 04:14:32;;;;;;;;;;;20.10;42.70;;;;;;4946413;28;19923;-58
2022/06/03 04:16:59;;;;;;;;;;;20.10;42.60;;;;;;4944834;28;19981;-56
2022/06/03 04:19:47;;;;;;;;;;;20.10;42.70;;;;;;4981694;28;20409;-57
2022/06/03 04:22:38;;;;;;;;;;;20.10;42.70;;;;;;4928129;28;20431;-53
2022/06/03 04:25:26;;;;;;;;;;;20.10;42.70;;;;;;4928451;28;20270;-57
2022/06/03 04:28:12;;;;;;;;;;;20.10;42.70;;;;;;4907527;29;19930;-54
2022/06/03 04:30:55;;;;;;;;;;;20.10;42.70;;;;;;4935242;28;20390;-52
2022/06/03 04:33:36;;;;;;;;;;;20.10;42.70;;;;;;4943377;28;19927;-56
2022/06/03 04:36:22;;;;;;;;;;;20.10;42.70;;;;;;4924929;29;19980;-54
2022/06/03 04:39:00;;;;;;;;;;;20.10;42.80;;;;;;4923522;29;20021;-52
2022/06/03 04:41:56;;;;;;;;;;;20.10;42.80;;;;;;4954077;28;20380;-57
2022/06/03 04:44:41;;;;;;;;;;;20.10;42.80;;;;;;4957459;28;20012;-55
2022/06/03 04:47:41;;;;;;;;;;;20.10;42.80;;;;;;4932926;28;19926;-58
2022/06/03 04:50:22;;;;;;;;;;;20.10;42.80;;;;;;4934962;28;19930;-54
2022/06/03 04:53:10;;;;;;;;;;;20.10;42.80;;;;;;4957504;28;20046;-57
2022/06/03 04:55:55;;;;;;;;;;;20.10;43.50;;;;;;4962099;28;20370;-56
2022/06/03 04:58:52;;;;;;;;;;;20.10;42.90;;;;;;4930990;28;20014;-56
2022/06/03 05:01:28;;;;;;;;;;;20.10;42.90;;;;;;4960230;28;19922;-55
2022/06/03 05:04:16;;;;;;;;;;;20.10;42.90;;;;;;4928461;29;20265;-57
2022/06/03 05:07:16;;;;;;;;;;;20.10;42.90;;;;;;4932113;28;19923;-58
2022/06/03 05:10:20;;;;;;;;;;;20.10;43.00;;;;;;4966198;28;19934;-56
2022/06/03 05:13:11;;;;;;;;;;;20.10;43.00;;;;;;4965570;28;20022;-54
2022/06/03 05:15:59;;;;;;;;;;;20.10;43.00;;;;;;4879116;29;19994;-56
2022/06/03 05:18:40;;;;;;;;;;;20.10;43.00;;;;;;4940469;28;20331;-55
2022/06/03 05:21:32;;;;;;;;;;;20.10;43.10;;;;;;4944313;28;19935;-58
2022/06/03 05:24:06;;;;;;;;;;;20.10;43.10;;;;;;4943341;28;19927;-57
2022/06/03 05:26:41;;;;;;;;;;;20.10;43.10;;;;;;5007107;28;19935;-57
2022/06/03 05:29:32;;;;;;;;;;;20.10;43.10;;;;;;4927700;28;19977;-57
2022/06/03 05:32:16;;;;;;;;;;;20.10;43.20;;;;;;4944793;28;19923;-57
2022/06/03 05:34:50;;;;;;;;;;;20.10;43.20;;;;;;4926850;29;19923;-56
2022/06/03 05:37:36;;;;;;;;;;;20.10;43.20;;;;;;4926365;28;19927;-57
2022/06/03 05:40:25;;;;;;;;;;;20.10;43.20;;;;;;4927431;28;19930;-60
2022/06/03 05:43:02;;;;;;;;;;;20.10;43.30;;;;;;4939001;28;19923;-57
2022/06/03 05:45:35;;;;;;;;;;;20.10;43.30;;;;;;4929235;28;20368;-53
2022/06/03 05:48:03;;;;;;;;;;;20.10;43.30;;;;;;4946575;28;19976;-57
2022/06/03 05:50:32;;;;;;;;;;;20.10;43.40;;;;;;4927411;28;19949;-55
2022/06/03 05:53:03;;;;;;;;;;;20.10;43.40;;;;;;4929483;28;19930;-57
2022/06/03 05:55:35;;;;;;;;;;;20.10;43.40;;;;;;4928543;28;19950;-55
2022/06/03 05:58:06;;;;;;;;;;;20.10;43.40;;;;;;4945645;28;19927;-56
2022/06/03 06:00:41;;;;;;;;;;;20.10;43.50;;;;;;4928600;28;20276;-56
2022/06/03 06:03:17;;;;;;;;;;;20.10;43.50;;;;;;4928798;28;19934;-56
2022/06/03 06:05:48;;;;;;;;;;;20.10;43.50;;;;;;4942355;28;20285;-57
2022/06/03 06:08:17;;;;;;;;;;;20.10;43.50;;;;;;4926146;28;19922;-58
2022/06/03 06:10:48;;;;;;;;;;;20.10;43.50;;;;;;4924097;28;20275;-54
2022/06/03 06:13:21;;;;;;;;;;;20.10;43.50;;;;;;4927160;28;19930;-55
2022/06/03 06:15:57;;;;;;;;;;;20.10;43.50;;;;;;4930500;28;20438;-56
2022/06/03 06:18:26;;;;;;;;;;;20.10;43.60;;;;;;5011345;28;19927;-56
2022/06/03 06:20:58;;;;;;;;;;;20.10;43.50;;;;;;4935785;28;20224;-51
2022/06/03 06:23:28;;;;;;;;;;;20.10;43.60;;;;;;4939301;28;19968;-53
2022/06/03 06:26:10;;;;;;;;;;;20.20;43.70;;;;;;4960644;28;19923;-54
2022/06/03 06:28:43;;;;;;;;;;;20.10;43.80;;;;;;4931848;28;19958;-53
2022/06/03 06:31:20;;;;;;;;;;;20.10;43.90;;;;;;4952100;28;19931;-56
2022/06/03 06:34:04;;;;;;;;;;;20.10;44.00;;;;;;4946150;28;19949;-59
2022/06/03 06:36:58;;;;;;;;;;;20.10;44.10;;;;;;4950396;28;19923;-54
2022/06/03 06:39:29;;;;;;;;;;;20.10;44.10;;;;;;4886340;29;20352;-53
2022/06/03 06:41:57;;;;;;;;;;;20.10;44.10;;;;;;4944926;28;19935;-56
2022/06/03 06:44:34;;;;;;;;;;;20.10;44.10;;;;;;4953177;28;19927;-58
2022/06/03 06:47:04;;;;;;;;;;;20.10;44.00;;;;;;4960745;28;19966;-55
2022/06/03 06:49:31;;;;;;;;;;;20.10;44.00;;;;;;4950331;28;19969;-57
2022/06/03 06:52:25;;;;;;;;;;;20.10;44.00;;;;;;4930937;28;19927;-55
2022/06/03 06:54:54;;;;;;;;;;;20.10;44.00;;;;;;4910647;28;19923;-53
2022/06/03 06:57:22;;;;;;;;;;;20.10;44.20;;;;;;4929390;28;19923;-53
2022/06/03 06:59:51;;;;;;;;;;;20.10;44.30;;;;;;4946306;28;20006;-51
2022/06/03 07:02:19;;;;;;;;;;;20.10;44.30;;;;;;4950428;28;19923;-56
2022/06/03 07:04:47;;;;;;;;;;;20.10;44.30;;;;;;4931059;29;20368;-55
2022/06/03 07:07:15;;;;;;;;;;;20.10;44.30;;;;;;4931391;28;19938;-56
2022/06/03 07:09:43;;;;;;;;;;;20.10;44.80;;;;;;4930837;28;20403;-56
2022/06/03 07:12:10;;;;;;;;;;;20.10;44.30;;;;;;4929652;28;19984;-58
2022/06/03 07:14:39;;;;;;;;;;;20.10;44.40;;;;;;4929239;28;19962;-55
2022/06/03 07:20:00;;;;;;;;;;;20.10;44.60;;;;;;4926918;28;19950;-52
2022/06/03 07:22:28;;;;;;;;;;;20.10;44.60;;;;;;4930045;28;19923;-56
2022/06/03 07:24:58;;;;;;;;;;;20.10;44.60;;;;;;4930104;28;20387;-56
2022/06/03 07:27:26;;;;;;;;;;;20.20;44.70;;;;;;4928265;28;19988;-54
2022/06/03 07:29:56;;;;;;;;;;;20.20;44.60;;;;;;4928044;28;19929;-55
2022/06/03 07:32:26;;;;;;;;;;;20.20;44.60;;;;;;4928234;28;19981;-58
2022/06/03 07:34:53;;;;;;;;;;;20.20;44.60;;;;;;4931701;28;19922;-55
2022/06/03 07:37:22;;;;;;;;;;;20.20;44.60;;;;;;4928982;28;19923;-56
2022/06/03 07:39:49;;;;;;;;;;;20.20;44.50;;;;;;4934165;28;20452;-55
2022/06/03 07:42:18;;;;;;;;;;;20.20;44.50;;;;;;4928891;28;20392;-60
2022/06/03 07:44:47;;;;;;;;;;;20.20;44.50;;;;;;4928542;28;19956;-55
2022/06/03 07:47:15;;;;;;;;;;;20.30;44.60;;;;;;4926677;28;19926;-57
2022/06/03 07:49:44;;;;;;;;;;;20.30;44.50;;;;;;4931986;28;20006;-54
2022/06/03 07:52:12;;;;;;;;;;;20.30;44.50;;;;;;4930540;28;19926;-56
2022/06/03 07:54:40;;;;;;;;;;;20.30;44.50;;;;;;4927584;28;19938;-54
2022/06/03 07:57:07;;;;;;;;;;;20.30;44.50;;;;;;4929331;28;19927;-56
2022/06/03 07:59:36;;;;;;;;;;;20.30;44.50;;;;;;4934868;28;20030;-54
2022/06/03 08:02:04;;;;;;;;;;;20.30;44.50;;;;;;4929119;28;20364;-56
2022/06/03 08:04:31;;;;;;;;;;;20.30;44.40;;;;;;4937689;28;19961;-54
2022/06/03 08:12:29;;;;;;;;;;;20.30;44.40;;;;;;5005628;28;19927;-54
2022/06/03 08:14:56;;;;;;;;;;;20.30;44.50;;;;;;4943796;28;19927;-56
2022/06/03 08:17:23;;;;;;;;;;;20.30;44.40;;;;;;4927507;28;19923;-56
2022/06/03 08:19:51;;;;;;;;;;;20.30;44.40;;;;;;4930639;28;19977;-58
2022/06/03 08:22:21;;;;;;;;;;;20.40;44.50;;;;;;4934369;28;19934;-53
2022/06/03 08:24:50;;;;;;;;;;;20.30;44.40;;;;;;4924030;28;20013;-55
2022/06/03 08:27:20;;;;;;;;;;;20.30;44.50;;;;;;4926373;28;19977;-53
2022/06/03 08:29:48;;;;;;;;;;;20.40;44.50;;;;;;4937009;28;19962;-57
2022/06/03 08:32:17;;;;;;;;;;;20.30;44.50;;;;;;4927871;28;19950;-55
2022/06/03 08:34:45;;;;;;;;;;;20.40;44.50;;;;;;4938023;28;19930;-56
2022/06/03 08:37:13;;;;;;;;;;;20.40;44.50;;;;;;4941945;28;19926;-59
2022/06/03 08:39:41;;;;;;;;;;;20.40;44.50;;;;;;4943525;28;19935;-53
2022/06/03 08:42:17;;;;;;;;;;;20.40;44.50;;;;;;4927642;28;19923;-56
2022/06/03 08:44:52;;;;;;;;;;;20.40;44.50;;;;;;4923924;28;20322;-56
2022/06/03 08:47:20;;;;;;;;;;;20.40;44.60;;;;;;4953144;28;19923;-56
2022/06/03 08:49:48;;;;;;;;;;;20.40;44.60;;;;;;4931540;28;19922;-57
2022/06/03 08:52:15;;;;;;;;;;;20.40;44.60;;;;;;4926134;28;19998;-53
2022/06/03 08:54:44;;;;;;;;;;;20.40;44.60;;;;;;4929167;28;20383;-59
2022/06/03 08:57:12;;;;;;;;;;;20.40;44.60;;;;;;4925793;28;19929;-54
2022/06/03 08:59:40;;;;;;;;;;;20.40;44.60;;;;;;4929944;28;20372;-56
2022/06/03 09:02:07;;;;;;;;;;;20.40;44.60;;;;;;4929101;28;19990;-59
2022/06/03 09:04:37;;;;;;;;;;;20.40;44.60;;;;;;4940178;28;19922;-57
2022/06/03 09:07:05;;;;;;;;;;;20.40;44.60;;;;;;4941431;28;19927;-59
2022/06/03 09:09:35;;;;;;;;;;;20.40;44.60;;;;;;4930187;28;19927;-57
2022/06/03 09:12:06;;;;;;;;;;;20.40;44.60;;;;;;4942617;28;20368;-56
2022/06/03 09:14:33;;;;;;;;;;;20.40;44.60;;;;;;4949070;28;19930;-55
2022/06/03 09:17:08;;;;;;;;;;;20.50;44.70;;;;;;4927748;28;20234;-56
2022/06/03 09:19:38;;;;;;;;;;;20.50;44.70;;;;;;4926472;28;19923;-57
2022/06/03 09:22:07;;;;;;;;;;;20.50;44.70;;;;;;4941098;28;20368;-57
2022/06/03 09:24:34;;;;;;;;;;;20.50;44.70;;;;;;4927038;28;20018;-54
2022/06/03 09:27:01;;;;;;;;;;;20.50;44.70;;;;;;4945120;28;20013;-56
2022/06/03 09:29:30;;;;;;;;;;;20.50;44.70;;;;;;4926876;28;19930;-57
2022/06/03 09:31:57;;;;;;;;;;;20.50;44.70;;;;;;4942075;28;20326;-55
2022/06/03 09:34:31;;;;;;;;;;;20.50;44.70;;;;;;4925319;28;19973;-53
2022/06/03 09:36:57;;;;;;;;;;;20.50;44.70;;;;;;4924279;28;19970;-51
2022/06/03 09:39:24;;;;;;;;;;;20.50;44.70;;;;;;4924187;28;19922;-56
2022/06/03 09:41:55;;;;;;;;;;;20.50;44.70;;;;;;4947768;28;19923;-57
2022/06/03 09:44:23;;;;;;;;;;;20.50;44.70;;;;;;4929219;28;19978;-55
2022/06/03 09:46:51;;;;;;;;;;;20.50;44.70;;;;;;4941402;28;19929;-58
2022/06/03 09:49:18;;;;;;;;;;;20.50;44.70;;;;;;4927518;28;19927;-57
2022/06/03 09:51:57;;;;;;;;;;;20.50;44.70;;;;;;4940650;28;19923;-52
2022/06/03 09:54:24;;;;;;;;;;;20.50;44.70;;;;;;4925679;28;19927;-54
2022/06/03 09:56:51;;;;;;;;;;;20.50;44.70;;;;;;4942673;28;19958;-53
2022/06/03 09:59:19;;;;;;;;;;;20.50;44.60;;;;;;4927065;28;19926;-55
2022/06/03 10:01:46;;;;;;;;;;;20.50;44.60;;;;;;4930925;28;19922;-54
2022/06/03 10:04:14;;;;;;;;;;;20.50;44.60;;;;;;4926824;28;19923;-54
2022/06/03 10:06:46;;;;;;;;;;;20.50;44.50;;;;;;4936731;28;19938;-56
2022/06/03 10:14:41;;;;;;;;;;;20.50;44.10;;;;;;4942844;28;19929;-55
2022/06/03 10:17:08;;;;;;;;;;;20.50;44.00;;;;;;4978525;28;19958;-56
2022/06/03 10:19:36;;;;;;;;;;;20.50;43.80;;;;;;4917189;28;19927;-56
2022/06/03 10:22:08;;;;;;;;;;;20.50;43.60;;;;;;4923938;28;19923;-58
2022/06/03 10:24:34;;;;;;;;;;;20.50;43.60;;;;;;4924765;28;20300;-56
2022/06/03 10:27:02;;;;;;;;;;;20.50;43.50;;;;;;4927070;28;19927;-57
2022/06/03 10:29:30;;;;;;;;;;;20.50;43.50;;;;;;4925562;28;19923;-52
2022/06/03 10:31:59;;;;;;;;;;;20.50;43.40;;;;;;4930198;28;19923;-54
2022/06/03 10:34:27;;;;;;;;;;;20.50;43.40;;;;;;4946390;28;19923;-55
2022/06/03 10:36:55;;;;;;;;;;;20.50;43.20;;;;;;4943583;28;19923;-52
2022/06/03 10:39:23;;;;;;;;;;;20.50;43.20;;;;;;4931492;28;19923;-55
2022/06/03 10:41:50;;;;;;;;;;;20.50;43.10;;;;;;4921910;28;20245;-55
2022/06/03 10:44:18;;;;;;;;;;;20.50;43.00;;;;;;4927909;28;19977;-53
2022/06/03 10:47:03;;;;;;;;;;;20.50;43.00;;;;;;4942054;28;19927;-57
2022/06/03 10:49:30;;;;;;;;;;;20.50;42.90;;;;;;4943572;28;19927;-53
2022/06/03 11:02:56;;;;;;;;;;;20.50;42.70;;;;;;4918067;28;19935;-57
2022/06/03 11:05:24;;;;;;;;;;;20.50;42.50;;;;;;4942820;28;19923;-57
2022/06/03 11:07:59;;;;;;;;;;;20.40;42.40;;;;;;4918795;28;20372;-54
2022/06/03 11:10:27;;;;;;;;;;;20.50;42.30;;;;;;4915872;28;19966;-55
2022/06/03 11:13:00;;;;;;;;;;;20.50;42.20;;;;;;4912003;28;20360;-52
2022/06/03 11:15:31;;;;;;;;;;;20.50;42.20;;;;;;4928248;28;19923;-54
2022/06/03 11:17:58;;;;;;;;;;;20.50;42.20;;;;;;4931940;28;20018;-53
2022/06/03 11:20:32;;;;;;;;;;;20.40;42.10;;;;;;4918697;28;19930;-56
2022/06/03 11:23:01;;;;;;;;;;;20.50;42.10;;;;;;4929199;28;19969;-53
2022/06/03 11:25:29;;;;;;;;;;;20.50;42.00;;;;;;4931833;28;19973;-56
2022/06/03 11:27:57;;;;;;;;;;;20.50;42.00;;;;;;4922721;28;19923;-56
2022/06/03 11:30:27;;;;;;;;;;;20.50;42.00;;;;;;4927118;28;19966;-60
2022/06/03 11:32:54;;;;;;;;;;;20.50;41.90;;;;;;4925896;28;19923;-51
2022/06/03 11:35:23;;;;;;;;;;;20.50;41.90;;;;;;4951610;28;20376;-55
2022/06/03 11:37:52;;;;;;;;;;;20.50;41.60;;;;;;4931283;28;19926;-55
2022/06/03 11:40:22;;;;;;;;;;;20.50;41.60;;;;;;4928326;28;20014;-61
2022/06/03 11:42:50;;;;;;;;;;;20.50;41.60;;;;;;4943971;28;20459;-56
2022/06/03 11:45:18;;;;;;;;;;;20.50;41.50;;;;;;4929489;28;19973;-56
2022/06/03 11:47:49;;;;;;;;;;;20.40;41.40;;;;;;4939842;28;19931;-55
2022/06/03 11:50:16;;;;;;;;;;;20.40;41.30;;;;;;4930050;28;19923;-56
2022/06/03 11:52:43;;;;;;;;;;;20.40;41.20;;;;;;4946874;28;19921;-54
2022/06/03 11:55:11;;;;;;;;;;;20.40;41.20;;;;;;4951798;28;19922;-55
2022/06/03 11:57:40;;;;;;;;;;;20.40;41.20;;;;;;4929160;28;19922;-57
2022/06/03 12:00:07;;;;;;;;;;;20.40;41.30;;;;;;4947557;28;19929;-57
2022/06/03 12:02:35;;;;;;;;;;;20.40;41.20;;;;;;4926987;28;19958;-52
2022/06/03 12:05:04;;;;;;;;;;;20.40;41.00;;;;;;4967004;28;19921;-58
2022/06/03 12:07:34;;;;;;;;;;;20.40;41.00;;;;;;4929966;28;19927;-61
2022/06/03 12:10:03;;;;;;;;;;;20.40;40.60;;;;;;4940323;28;19950;-56
2022/06/03 12:15:44;;;;;;;;;;;20.40;40.50;;;;;;4930130;28;20347;-58
2022/06/03 12:18:32;;;;;;;;;;;20.40;40.40;;;;;;4937837;28;20406;-56
2022/06/03 12:21:01;;;;;;;;;;;20.40;40.30;;;;;;4945403;28;19923;-57
2022/06/03 12:23:46;;;;;;;;;;;20.40;40.10;;;;;;4943445;28;19966;-57
2022/06/03 12:26:14;;;;;;;;;;;20.40;40.00;;;;;;4928065;28;20355;-58
2022/06/03 12:28:42;;;;;;;;;;;20.40;39.80;;;;;;4930845;28;20315;-57
2022/06/03 12:31:10;;;;;;;;;;;20.40;39.70;;;;;;4945969;28;19926;-56
2022/06/03 12:33:43;;;;;;;;;;;20.40;39.70;;;;;;4921594;28;19923;-53
2022/06/03 12:36:32;;;;;;;;;;;20.40;39.70;;;;;;4938952;28;19927;-59
2022/06/03 12:39:14;;;;;;;;;;;20.40;39.90;;;;;;4928594;28;19941;-54
2022/06/03 12:41:59;;;;;;;;;;;20.40;39.90;;;;;;4932491;28;19929;-54
2022/06/03 12:44:36;;;;;;;;;;;20.40;39.90;;;;;;4928157;28;20428;-57
2022/06/03 12:47:22;;;;;;;;;;;20.40;40.00;;;;;;4928934;28;20442;-58
2022/06/03 12:49:49;;;;;;;;;;;20.40;40.00;;;;;;4940945;28;20022;-56
2022/06/03 12:52:31;;;;;;;;;;;20.40;40.00;;;;;;4928310;28;19923;-58
2022/06/03 12:54:59;;;;;;;;;;;20.50;40.20;;;;;;4940910;28;20260;-57
2022/06/03 12:57:27;;;;;;;;;;;20.50;40.10;;;;;;4944010;28;19923;-61
2022/06/03 12:59:55;;;;;;;;;;;20.50;40.20;;;;;;4939504;28;20396;-58
2022/06/03 13:02:22;;;;;;;;;;;20.50;40.10;;;;;;4945700;28;19930;-54
2022/06/03 13:05:15;;;;;;;;;;;20.50;40.20;;;;;;4936597;28;19923;-56
2022/06/03 13:07:58;;;;;;;;;;;20.50;40.20;;;;;;4928071;28;19929;-59
2022/06/03 13:10:28;;;;;;;;;;;20.50;40.10;;;;;;4924618;28;19929;-60
2022/06/03 13:12:55;;;;;;;;;;;20.50;40.20;;;;;;4945247;28;19923;-57
2022/06/03 13:15:42;;;;;;;;;;;20.50;40.10;;;;;;4930276;28;19994;-58
2022/06/03 13:18:10;;;;;;;;;;;20.60;40.20;;;;;;4939581;28;19938;-60
2022/06/03 13:20:37;;;;;;;;;;;20.60;40.30;;;;;;4928254;28;19965;-53
2022/06/03 13:23:14;;;;;;;;;;;20.60;40.80;;;;;;4936246;28;20016;-54
2022/06/03 13:25:43;;;;;;;;;;;20.60;40.30;;;;;;4919515;28;19923;-57
2022/06/03 13:28:19;;;;;;;;;;;20.60;40.40;;;;;;4923936;28;19957;-53
2022/06/03 13:30:45;;;;;;;;;;;20.60;40.40;;;;;;4923681;28;19930;-57
2022/06/03 13:33:13;;;;;;;;;;;20.60;40.40;;;;;;4926146;28;19923;-56
2022/06/03 13:35:57;;;;;;;;;;;20.60;40.40;;;;;;4927831;28;19930;-57
2022/06/03 13:38:27;;;;;;;;;;;20.60;40.40;;;;;;4926123;28;20022;-54
2022/06/03 13:44:04;;;;;;;;;;;20.70;40.60;;;;;;4938991;29;19929;-57
2022/06/03 13:46:31;;;;;;;;;;;20.70;40.50;;;;;;4929169;28;19923;-52
2022/06/03 13:48:58;;;;;;;;;;;20.70;40.50;;;;;;4933121;28;19923;-57
2022/06/03 13:51:33;;;;;;;;;;;20.70;40.50;;;;;;4930304;28;19930;-56
2022/06/03 13:54:01;;;;;;;;;;;20.70;40.50;;;;;;4929529;28;19942;-57
2022/06/03 13:56:28;;;;;;;;;;;20.70;40.40;;;;;;4943598;28;19927;-56
2022/06/03 13:58:55;;;;;;;;;;;20.70;40.30;;;;;;4950312;28;19928;-56
2022/06/03 14:01:26;;;;;;;;;;;20.70;40.40;;;;;;4946145;28;20376;-55
2022/06/03 14:03:56;;;;;;;;;;;20.70;40.40;;;;;;4942246;28;19923;-53
2022/06/03 14:06:24;;;;;;;;;;;20.70;40.40;;;;;;4928027;28;19946;-56
2022/06/03 14:08:52;;;;;;;;;;;20.70;40.50;;;;;;4943361;28;20284;-56
2022/06/03 14:11:20;;;;;;;;;;;20.70;40.40;;;;;;4940635;28;19976;-52
2022/06/03 14:13:48;;;;;;;;;;;20.80;40.50;;;;;;4931694;28;19988;-57
2022/06/03 14:16:17;;;;;;;;;;;20.80;40.50;;;;;;4949413;28;20450;-55
2022/06/03 14:18:50;;;;;;;;;;;20.80;41.10;;;;;;4932982;28;19934;-56
2022/06/03 14:21:18;;;;;;;;;;;20.80;40.40;;;;;;4939960;28;19923;-55
2022/06/03 14:23:45;;;;;;;;;;;20.80;40.40;;;;;;4934911;28;19946;-58
2022/06/03 14:26:14;;;;;;;;;;;20.70;40.30;;;;;;4942810;28;19923;-56
2022/06/03 14:28:41;;;;;;;;;;;20.80;40.30;;;;;;4931555;28;19929;-57
2022/06/03 14:31:11;;;;;;;;;;;20.80;40.90;;;;;;4942699;28;19976;-56
2022/06/03 14:33:39;;;;;;;;;;;20.80;40.10;;;;;;4938992;28;19923;-55
2022/06/03 14:36:08;;;;;;;;;;;20.80;40.10;;;;;;4926787;28;19974;-54
2022/06/03 14:38:36;;;;;;;;;;;20.80;40.00;;;;;;4935929;28;19968;-54
2022/06/03 14:41:03;;;;;;;;;;;20.80;40.00;;;;;;4933009;28;19923;-55
2022/06/03 14:43:30;;;;;;;;;;;20.80;40.10;;;;;;4938031;28;19923;-60
2022/06/03 14:45:58;;;;;;;;;;;20.80;40.10;;;;;;4946496;28;19935;-57
2022/06/03 14:48:31;;;;;;;;;;;20.80;40.10;;;;;;4926268;28;19927;-61
2022/06/03 14:51:02;;;;;;;;;;;20.80;40.10;;;;;;4943857;28;20001;-61
2022/06/03 14:53:33;;;;;;;;;;;20.80;40.10;;;;;;4940195;28;19930;-56
2022/06/03 14:56:01;;;;;;;;;;;20.80;39.90;;;;;;4927597;28;19923;-54
2022/06/03 14:58:28;;;;;;;;;;;20.80;39.90;;;;;;4930552;28;19977;-55
2022/06/03 15:01:00;;;;;;;;;;;20.80;40.00;;;;;;4960989;28;19923;-56
2022/06/03 15:03:29;;;;;;;;;;;20.80;39.70;;;;;;4981151;28;20022;-55
2022/06/03 15:05:56;;;;;;;;;;;20.80;39.70;;;;;;4946971;28;19959;-57
2022/06/03 15:08:24;;;;;;;;;;;20.80;39.70;;;;;;4943245;28;19923;-59
2022/06/03 15:10:54;;;;;;;;;;;20.80;39.70;;;;;;4932207;28;19981;-54
2022/06/03 15:13:25;;;;;;;;;;;20.80;39.70;;;;;;4934887;29;20340;-52
2022/06/03 15:15:51;;;;;;;;;;;20.80;39.50;;;;;;4935922;28;19972;-56
2022/06/03 15:18:19;;;;;;;;;;;20.80;39.50;;;;;;4930273;28;19930;-55
2022/06/03 15:20:55;;;;;;;;;;;20.80;39.40;;;;;;4931994;28;19923;-55
2022/06/03 15:23:24;;;;;;;;;;;20.80;39.40;;;;;;4921811;28;19923;-51
2022/06/03 15:25:54;;;;;;;;;;;20.80;39.30;;;;;;4932648;28;19930;-55